sensor_id;sensor_type;location;lat;lon;timestamp;pressure;altitude;pressure_sealevel;temperature;humidity
62333;BME280;48624;49.812;8.562;2023-02-14T00:05:19;102567.97;;;0.63;98.87
62333;BME280;48624;49.812;8.562;2023-02-14T00:36:17;102588.50;;;0.27;98.89
62333;BME280;48624;49.812;8.562;2023-02-14T00:49:46;102577.06;;;0.14;99.19
62333;BME280;48624;49.812;8.562;2023-02-14T01:13:36;102570.63;;;-0.22;100.00
62333;BME280;48624;49.812;8.562;2023-02-14T01:20:25;102574.66;;;-0.49;99.88
62333;BME280;48624;49.812;8.562;2023-02-14T01:31:37;102567.63;;;-0.53;100.00
62333;BME280;48624;49.812;8.562;2023-02-14T02:49:51;102563.19;;;-0.65;99.89
62333;BME280;48624;49.812;8.562;2023-02-14T03:44:15;102564.31;;;-1.08;100.00
62333;BME280;48624;49.812;8.562;2023-02-14T04:05:33;102565.06;;;-1.17;100.00
62333;BME280;48624;49.812;8.562;2023-02-14T04:08:46;102570.47;;;-1.03;100.00
62333;BME280;48624;49.812;8.562;2023-02-14T04:11:35;102585.00;;;-1.16;100.00
62333;BME280;48624;49.812;8.562;2023-02-14T04:14:21;102578.13;;;-1.10;100.00
62333;BME280;48624;49.812;8.562;2023-02-14T04:17:13;102577.22;;;-1.16;100.00
62333;BME280;48624;49.812;8.562;2023-02-14T04:27:06;102596.81;;;-1.36;100.00
62333;BME280;48624;49.812;8.562;2023-02-14T04:30:43;102584.59;;;-1.42;100.00
62333;BME280;48624;49.812;8.562;2023-02-14T04:33:35;102595.94;;;-1.37;100.00
62333;BME280;48624;49.812;8.562;2023-02-14T04:53:32;102592.03;;;-1.62;100.00
62333;BME280;48624;49.812;8.562;2023-02-14T04:56:18;102587.47;;;-1.77;100.00
62333;BME280;48624;49.812;8.562;2023-02-14T04:59:11;102597.59;;;-1.90;100.00
62333;BME280;48624;49.812;8.562;2023-02-14T05:15:58;102590.38;;;-2.06;100.00
62333;BME280;48624;49.812;8.562;2023-02-14T05:22:48;102586.63;;;-2.22;100.00
62333;BME280;48624;49.812;8.562;2023-02-14T05:29:49;102594.56;;;-2.15;100.00
62333;BME280;48624;49.812;8.562;2023-02-14T05:36:25;102604.88;;;-2.18;100.00
62333;BME280;48624;49.812;8.562;2023-02-14T05:46:15;102593.47;;;-1.80;100.00
62333;BME280;48624;49.812;8.562;2023-02-14T05:49:14;102594.59;;;-1.65;100.00
62333;BME280;48624;49.812;8.562;2023-02-14T05:55:29;102596.00;;;-1.32;100.00
62333;BME280;48624;49.812;8.562;2023-02-14T05:57:57;102599.56;;;-1.27;100.00
62333;BME280;48624;49.812;8.562;2023-02-14T06:00:23;102605.03;;;-1.10;100.00
62333;BME280;48624;49.812;8.562;2023-02-14T06:02:49;102593.94;;;-0.98;100.00
62333;BME280;48624;49.812;8.562;2023-02-14T06:05:14;102594.94;;;-0.90;100.00
62333;BME280;48624;49.812;8.562;2023-02-14T06:07:42;102583.00;;;-0.75;100.00
62333;BME280;48624;49.812;8.562;2023-02-14T06:10:13;102598.56;;;-0.77;100.00
62333;BME280;48624;49.812;8.562;2023-02-14T06:12:38;102587.53;;;-0.60;100.00
62333;BME280;48624;49.812;8.562;2023-02-14T06:15:03;102598.75;;;-0.63;100.00
62333;BME280;48624;49.812;8.562;2023-02-14T06:17:30;102607.28;;;-0.76;100.00
62333;BME280;48624;49.812;8.562;2023-02-14T06:19:56;102599.50;;;-0.73;100.00
62333;BME280;48624;49.812;8.562;2023-02-14T06:22:21;102594.50;;;-0.58;100.00
62333;BME280;48624;49.812;8.562;2023-02-14T06:24:46;102600.75;;;-0.45;100.00
62333;BME280;48624;49.812;8.562;2023-02-14T06:27:11;102592.00;;;-0.50;100.00
62333;BME280;48624;49.812;8.562;2023-02-14T06:29:37;102597.56;;;-0.23;100.00
62333;BME280;48624;49.812;8.562;2023-02-14T06:32:02;102599.22;;;-0.29;100.00
62333;BME280;48624;49.812;8.562;2023-02-14T06:34:33;102602.44;;;-0.48;100.00
62333;BME280;48624;49.812;8.562;2023-02-14T06:36:59;102599.94;;;-0.40;100.00
62333;BME280;48624;49.812;8.562;2023-02-14T06:39:24;102599.25;;;-0.25;100.00
62333;BME280;48624;49.812;8.562;2023-02-14T06:41:49;102604.28;;;-0.41;100.00
62333;BME280;48624;49.812;8.562;2023-02-14T06:44:15;102599.81;;;-0.51;100.00
62333;BME280;48624;49.812;8.562;2023-02-14T06:46:40;102594.38;;;-0.67;100.00
62333;BME280;48624;49.812;8.562;2023-02-14T06:49:05;102602.50;;;-0.44;100.00
62333;BME280;48624;49.812;8.562;2023-02-14T06:51:31;102606.88;;;-0.39;100.00
62333;BME280;48624;49.812;8.562;2023-02-14T06:53:56;102613.00;;;-0.36;100.00
62333;BME280;48624;49.812;8.562;2023-02-14T06:56:22;102601.81;;;-0.29;100.00
62333;BME280;48624;49.812;8.562;2023-02-14T06:58:47;102614.66;;;-0.43;100.00
62333;BME280;48624;49.812;8.562;2023-02-14T07:01:12;102617.59;;;-0.18;100.00
62333;BME280;48624;49.812;8.562;2023-02-14T07:03:37;102620.09;;;-0.27;100.00
62333;BME280;48624;49.812;8.562;2023-02-14T07:06:03;102615.50;;;-0.47;100.00
62333;BME280;48624;49.812;8.562;2023-02-14T07:08:29;102618.31;;;-0.30;100.00
62333;BME280;48624;49.812;8.562;2023-02-14T07:10:55;102617.75;;;-0.02;100.00
62333;BME280;48624;49.812;8.562;2023-02-14T07:13:21;102621.22;;;-0.03;100.00
62333;BME280;48624;49.812;8.562;2023-02-14T07:15:46;102613.56;;;0.12;100.00
62333;BME280;48624;49.812;8.562;2023-02-14T07:18:12;102614.47;;;0.18;100.00
62333;BME280;48624;49.812;8.562;2023-02-14T07:20:38;102617.13;;;0.22;100.00
62333;BME280;48624;49.812;8.562;2023-02-14T07:23:03;102618.94;;;0.26;100.00
62333;BME280;48624;49.812;8.562;2023-02-14T07:25:28;102634.59;;;0.30;100.00
62333;BME280;48624;49.812;8.562;2023-02-14T07:27:54;102626.75;;;0.26;100.00
62333;BME280;48624;49.812;8.562;2023-02-14T07:30:20;102632.84;;;0.27;100.00
62333;BME280;48624;49.812;8.562;2023-02-14T07:32:45;102631.03;;;0.21;100.00
62333;BME280;48624;49.812;8.562;2023-02-14T07:35:11;102627.72;;;0.36;100.00
62333;BME280;48624;49.812;8.562;2023-02-14T07:37:37;102638.97;;;0.32;100.00
62333;BME280;48624;49.812;8.562;2023-02-14T07:40:04;102635.44;;;0.27;100.00
62333;BME280;48624;49.812;8.562;2023-02-14T07:42:30;102629.53;;;0.47;100.00
62333;BME280;48624;49.812;8.562;2023-02-14T07:44:55;102633.78;;;0.35;100.00
62333;BME280;48624;49.812;8.562;2023-02-14T07:47:20;102629.59;;;0.50;100.00
62333;BME280;48624;49.812;8.562;2023-02-14T07:49:45;102637.22;;;0.30;100.00
62333;BME280;48624;49.812;8.562;2023-02-14T07:52:11;102623.34;;;0.35;100.00
62333;BME280;48624;49.812;8.562;2023-02-14T07:54:36;102625.88;;;0.26;100.00
62333;BME280;48624;49.812;8.562;2023-02-14T07:57:03;102615.28;;;0.09;100.00
62333;BME280;48624;49.812;8.562;2023-02-14T07:59:28;102620.63;;;0.23;100.00
62333;BME280;48624;49.812;8.562;2023-02-14T08:01:54;102623.84;;;-0.02;100.00
62333;BME280;48624;49.812;8.562;2023-02-14T08:04:19;102616.06;;;0.05;100.00
62333;BME280;48624;49.812;8.562;2023-02-14T08:06:45;102618.75;;;0.11;100.00
62333;BME280;48624;49.812;8.562;2023-02-14T08:09:11;102622.19;;;0.05;100.00
62333;BME280;48624;49.812;8.562;2023-02-14T08:11:49;102621.63;;;0.36;100.00
62333;BME280;48624;49.812;8.562;2023-02-14T08:14:33;102625.28;;;0.53;100.00
62333;BME280;48624;49.812;8.562;2023-02-14T08:16:58;102621.50;;;0.22;100.00
62333;BME280;48624;49.812;8.562;2023-02-14T08:19:23;102628.63;;;0.38;100.00
62333;BME280;48624;49.812;8.562;2023-02-14T08:21:49;102621.72;;;0.45;100.00
62333;BME280;48624;49.812;8.562;2023-02-14T08:24:14;102621.94;;;0.70;100.00
62333;BME280;48624;49.812;8.562;2023-02-14T08:26:39;102627.22;;;0.76;100.00
62333;BME280;48624;49.812;8.562;2023-02-14T08:29:04;102628.84;;;0.62;100.00
62333;BME280;48624;49.812;8.562;2023-02-14T08:31:30;102624.63;;;0.81;100.00
62333;BME280;48624;49.812;8.562;2023-02-14T08:33:56;102623.53;;;0.54;100.00
62333;BME280;48624;49.812;8.562;2023-02-14T08:36:21;102632.38;;;0.72;100.00
62333;BME280;48624;49.812;8.562;2023-02-14T08:38:47;102630.88;;;0.06;100.00
62333;BME280;48624;49.812;8.562;2023-02-14T08:41:14;102627.81;;;0.47;100.00
62333;BME280;48624;49.812;8.562;2023-02-14T08:43:40;102623.50;;;0.49;100.00
62333;BME280;48624;49.812;8.562;2023-02-14T08:46:06;102621.84;;;0.61;100.00
62333;BME280;48624;49.812;8.562;2023-02-14T08:48:33;102627.16;;;0.70;100.00
62333;BME280;48624;49.812;8.562;2023-02-14T08:50:58;102622.75;;;0.64;100.00
62333;BME280;48624;49.812;8.562;2023-02-14T08:53:24;102633.22;;;0.69;100.00
62333;BME280;48624;49.812;8.562;2023-02-14T08:55:49;102630.59;;;0.64;100.00
62333;BME280;48624;49.812;8.562;2023-02-14T08:58:14;102637.50;;;0.61;100.00
62333;BME280;48624;49.812;8.562;2023-02-14T09:00:39;102624.41;;;0.54;100.00
62333;BME280;48624;49.812;8.562;2023-02-14T09:03:05;102629.41;;;0.33;100.00
62333;BME280;48624;49.812;8.562;2023-02-14T09:05:30;102624.47;;;0.61;100.00
62333;BME280;48624;49.812;8.562;2023-02-14T09:07:56;102631.50;;;0.66;100.00
62333;BME280;48624;49.812;8.562;2023-02-14T09:10:23;102623.34;;;0.35;100.00
62333;BME280;48624;49.812;8.562;2023-02-14T09:12:48;102625.31;;;0.57;100.00
62333;BME280;48624;49.812;8.562;2023-02-14T09:15:15;102620.03;;;0.50;100.00
62333;BME280;48624;49.812;8.562;2023-02-14T09:17:40;102634.19;;;0.79;100.00
62333;BME280;48624;49.812;8.562;2023-02-14T09:20:08;102632.53;;;0.87;100.00
62333;BME280;48624;49.812;8.562;2023-02-14T09:22:33;102624.69;;;0.87;100.00
62333;BME280;48624;49.812;8.562;2023-02-14T09:24:59;102625.59;;;0.94;100.00
62333;BME280;48624;49.812;8.562;2023-02-14T09:27:25;102622.00;;;0.76;100.00
62333;BME280;48624;49.812;8.562;2023-02-14T09:29:51;102616.19;;;1.18;100.00
62333;BME280;48624;49.812;8.562;2023-02-14T09:32:16;102622.16;;;0.96;100.00
62333;BME280;48624;49.812;8.562;2023-02-14T09:34:41;102614.34;;;1.03;100.00
62333;BME280;48624;49.812;8.562;2023-02-14T09:37:11;102617.09;;;1.20;100.00
62333;BME280;48624;49.812;8.562;2023-02-14T09:39:37;102623.25;;;1.31;100.00
62333;BME280;48624;49.812;8.562;2023-02-14T09:42:28;102613.81;;;1.60;100.00
62333;BME280;48624;49.812;8.562;2023-02-14T09:45:10;102620.59;;;1.23;100.00
62333;BME280;48624;49.812;8.562;2023-02-14T09:47:49;102622.44;;;1.38;100.00
62333;BME280;48624;49.812;8.562;2023-02-14T09:50:32;102611.75;;;1.03;100.00
62333;BME280;48624;49.812;8.562;2023-02-14T09:53:19;102612.69;;;1.16;100.00
62333;BME280;48624;49.812;8.562;2023-02-14T09:58:39;102610.22;;;1.39;100.00
62333;BME280;48624;49.812;8.562;2023-02-14T10:01:14;102603.31;;;1.47;100.00
62333;BME280;48624;49.812;8.562;2023-02-14T10:09:21;102618.03;;;1.33;100.00
62333;BME280;48624;49.812;8.562;2023-02-14T10:11:51;102612.13;;;1.71;100.00
62333;BME280;48624;49.812;8.562;2023-02-14T10:14:20;102612.13;;;1.77;100.00
62333;BME280;48624;49.812;8.562;2023-02-14T10:17:01;102618.28;;;1.86;100.00
62333;BME280;48624;49.812;8.562;2023-02-14T10:19:41;102611.31;;;1.88;99.01
62333;BME280;48624;49.812;8.562;2023-02-14T10:22:13;102613.00;;;1.72;100.00
62333;BME280;48624;49.812;8.562;2023-02-14T10:24:52;102614.69;;;1.59;99.42
62333;BME280;48624;49.812;8.562;2023-02-14T10:27:34;102613.84;;;1.69;99.98
62333;BME280;48624;49.812;8.562;2023-02-14T10:30:05;102615.69;;;1.87;99.94
62333;BME280;48624;49.812;8.562;2023-02-14T10:51:54;102603.47;;;1.88;99.40
62333;BME280;48624;49.812;8.562;2023-02-14T10:54:26;102586.06;;;2.01;99.33
62333;BME280;48624;49.812;8.562;2023-02-14T10:57:02;102589.53;;;1.86;99.72
62333;BME280;48624;49.812;8.562;2023-02-14T10:59:34;102587.78;;;1.86;100.00
62333;BME280;48624;49.812;8.562;2023-02-14T11:02:04;102584.31;;;2.03;98.54
62333;BME280;48624;49.812;8.562;2023-02-14T11:04:30;102576.44;;;1.78;99.70
62333;BME280;48624;49.812;8.562;2023-02-14T11:06:56;102579.06;;;1.83;100.00
62333;BME280;48624;49.812;8.562;2023-02-14T11:09:22;102572.88;;;1.59;100.00
62333;BME280;48624;49.812;8.562;2023-02-14T11:11:51;102569.38;;;1.49;100.00
62333;BME280;48624;49.812;8.562;2023-02-14T11:14:33;102572.59;;;1.04;100.00
62333;BME280;48624;49.812;8.562;2023-02-14T11:17:26;102565.00;;;1.54;100.00
62333;BME280;48624;49.812;8.562;2023-02-14T11:20:04;102559.75;;;1.45;100.00
62333;BME280;48624;49.812;8.562;2023-02-14T11:22:34;102553.50;;;1.12;100.00
62333;BME280;48624;49.812;8.562;2023-02-14T11:25:29;102555.38;;;1.42;100.00
62333;BME280;48624;49.812;8.562;2023-02-14T11:28:00;102554.47;;;1.29;100.00
62333;BME280;48624;49.812;8.562;2023-02-14T11:30:34;102542.38;;;1.55;100.00
62333;BME280;48624;49.812;8.562;2023-02-14T11:33:02;102545.06;;;1.76;100.00
62333;BME280;48624;49.812;8.562;2023-02-14T11:35:29;102539.78;;;1.58;100.00
62333;BME280;48624;49.812;8.562;2023-02-14T11:38:01;102546.59;;;1.20;100.00
62333;BME280;48624;49.812;8.562;2023-02-14T11:40:34;102524.94;;;1.49;100.00
62333;BME280;48624;49.812;8.562;2023-02-14T11:43:17;102528.56;;;2.13;100.00
62333;BME280;48624;49.812;8.562;2023-02-14T11:45:45;102519.88;;;2.28;99.46
62333;BME280;48624;49.812;8.562;2023-02-14T11:51:08;102523.34;;;2.49;96.12
62333;BME280;48624;49.812;8.562;2023-02-14T11:53:50;102518.03;;;2.97;95.24
62333;BME280;48624;49.812;8.562;2023-02-14T11:56:19;102521.59;;;2.70;96.81
62333;BME280;48624;49.812;8.562;2023-02-14T11:58:50;102513.66;;;2.96;95.76
62333;BME280;48624;49.812;8.562;2023-02-14T12:01:24;102505.75;;;3.19;94.53
62333;BME280;48624;49.812;8.562;2023-02-14T12:03:51;102504.91;;;3.07;94.52
62333;BME280;48624;49.812;8.562;2023-02-14T12:06:28;102495.22;;;3.29;92.76
62333;BME280;48624;49.812;8.562;2023-02-14T12:09:24;102494.22;;;3.53;91.32
62333;BME280;48624;49.812;8.562;2023-02-14T12:12:01;102493.44;;;3.43;92.59
62333;BME280;48624;49.812;8.562;2023-02-14T12:14:32;102489.00;;;3.55;92.20
62333;BME280;48624;49.812;8.562;2023-02-14T12:17:30;102485.31;;;3.84;90.95
62333;BME280;48624;49.812;8.562;2023-02-14T12:20:08;102484.69;;;3.38;91.75
62333;BME280;48624;49.812;8.562;2023-02-14T12:22:53;102481.06;;;3.70;91.10
62333;BME280;48624;49.812;8.562;2023-02-14T12:25:24;102479.16;;;3.89;89.57
62333;BME280;48624;49.812;8.562;2023-02-14T12:27:53;102472.81;;;4.20;89.29
62333;BME280;48624;49.812;8.562;2023-02-14T12:30:22;102471.91;;;4.23;89.42
62333;BME280;48624;49.812;8.562;2023-02-14T12:32:53;102471.97;;;4.16;87.95
62333;BME280;48624;49.812;8.562;2023-02-14T12:35:53;102464.88;;;4.26;87.04
62333;BME280;48624;49.812;8.562;2023-02-14T12:38:45;102462.34;;;4.14;87.91
62333;BME280;48624;49.812;8.562;2023-02-14T12:44:21;102450.41;;;3.77;89.40
62333;BME280;48624;49.812;8.562;2023-02-14T12:46:56;102450.41;;;3.77;88.93
62333;BME280;48624;49.812;8.562;2023-02-14T12:52:26;102449.34;;;4.01;89.15
62333;BME280;48624;49.812;8.562;2023-02-14T12:55:33;102454.66;;;3.94;87.66
62333;BME280;48624;49.812;8.562;2023-02-14T13:06:31;102433.03;;;3.59;91.00
62333;BME280;48624;49.812;8.562;2023-02-14T13:09:13;102429.25;;;4.00;89.44
62333;BME280;48624;49.812;8.562;2023-02-14T13:12:14;102429.84;;;4.30;87.74
62333;BME280;48624;49.812;8.562;2023-02-14T13:14:54;102419.53;;;4.13;87.53
62333;BME280;48624;49.812;8.562;2023-02-14T13:22:55;102404.28;;;4.51;86.73
62333;BME280;48624;49.812;8.562;2023-02-14T13:25:27;102409.75;;;4.28;87.18
62333;BME280;48624;49.812;8.562;2023-02-14T13:28:05;102407.69;;;4.61;86.26
62333;BME280;48624;49.812;8.562;2023-02-14T13:30:35;102406.09;;;5.17;84.13
62333;BME280;48624;49.812;8.562;2023-02-14T13:33:08;102401.22;;;4.90;83.44
62333;BME280;48624;49.812;8.562;2023-02-14T13:35:39;102403.91;;;4.84;84.85
62333;BME280;48624;49.812;8.562;2023-02-14T13:38:06;102396.50;;;5.14;83.79
62333;BME280;48624;49.812;8.562;2023-02-14T13:40:36;102400.38;;;4.83;83.86
62333;BME280;48624;49.812;8.562;2023-02-14T13:43:03;102389.88;;;4.83;84.53
62333;BME280;48624;49.812;8.562;2023-02-14T13:48:05;102393.69;;;4.59;85.47
62333;BME280;48624;49.812;8.562;2023-02-14T13:50:40;102391.88;;;4.64;85.27
62333;BME280;48624;49.812;8.562;2023-02-14T13:55:53;102385.03;;;5.20;83.22
62333;BME280;48624;49.812;8.562;2023-02-14T13:58:20;102384.34;;;5.07;83.83
62333;BME280;48624;49.812;8.562;2023-02-14T14:00:49;102383.41;;;5.11;83.76
62333;BME280;48624;49.812;8.562;2023-02-14T14:05:59;102386.28;;;4.91;83.56
62333;BME280;48624;49.812;8.562;2023-02-14T14:11:10;102377.28;;;5.12;83.12
62333;BME280;48624;49.812;8.562;2023-02-14T14:16:30;102376.63;;;4.93;83.36
62333;BME280;48624;49.812;8.562;2023-02-14T14:19:02;102380.28;;;4.82;84.37
62333;BME280;48624;49.812;8.562;2023-02-14T14:21:34;102377.41;;;5.01;83.80
62333;BME280;48624;49.812;8.562;2023-02-14T14:24:26;102378.75;;;4.64;84.32
62333;BME280;48624;49.812;8.562;2023-02-14T14:31:50;102374.56;;;5.18;84.50
62333;BME280;48624;49.812;8.562;2023-02-14T14:34:20;102369.25;;;5.23;82.97
62333;BME280;48624;49.812;8.562;2023-02-14T14:36:46;102361.63;;;5.04;83.90
62333;BME280;48624;49.812;8.562;2023-02-14T14:39:25;102365.44;;;4.78;84.30
62333;BME280;48624;49.812;8.562;2023-02-14T14:41:51;102364.16;;;5.10;83.78
62333;BME280;48624;49.812;8.562;2023-02-14T14:44:17;102366.50;;;5.31;82.32
62333;BME280;48624;49.812;8.562;2023-02-14T14:46:42;102353.88;;;4.92;83.47
62333;BME280;48624;49.812;8.562;2023-02-14T14:49:10;102343.78;;;5.26;83.78
62333;BME280;48624;49.812;8.562;2023-02-14T14:51:36;102351.13;;;5.62;81.41
62333;BME280;48624;49.812;8.562;2023-02-14T14:54:12;102348.88;;;5.37;82.44
62333;BME280;48624;49.812;8.562;2023-02-14T14:57:00;102339.69;;;5.63;80.65
62333;BME280;48624;49.812;8.562;2023-02-14T15:01:54;102336.91;;;5.74;80.95
62333;BME280;48624;49.812;8.562;2023-02-14T15:04:29;102335.59;;;5.45;80.63
62333;BME280;48624;49.812;8.562;2023-02-14T15:06:56;102332.84;;;5.53;81.45
62333;BME280;48624;49.812;8.562;2023-02-14T15:09:30;102321.16;;;5.71;80.38
62333;BME280;48624;49.812;8.562;2023-02-14T15:11:58;102320.72;;;5.96;79.59
62333;BME280;48624;49.812;8.562;2023-02-14T15:14:45;102318.03;;;5.99;79.36
62333;BME280;48624;49.812;8.562;2023-02-14T15:17:22;102319.88;;;5.94;78.42
62333;BME280;48624;49.812;8.562;2023-02-14T15:19:53;102330.81;;;5.71;79.33
62333;BME280;48624;49.812;8.562;2023-02-14T15:22:25;102323.09;;;5.61;79.16
62333;BME280;48624;49.812;8.562;2023-02-14T15:24:51;102329.94;;;5.68;79.70
62333;BME280;48624;49.812;8.562;2023-02-14T15:27:20;102333.09;;;5.37;80.28
62333;BME280;48624;49.812;8.562;2023-02-14T15:30:05;102327.34;;;5.13;81.58
62333;BME280;48624;49.812;8.562;2023-02-14T15:32:35;102326.97;;;4.77;83.38
62333;BME280;48624;49.812;8.562;2023-02-14T15:35:03;102326.66;;;4.97;82.74
62333;BME280;48624;49.812;8.562;2023-02-14T15:37:30;102323.25;;;4.94;83.19
62333;BME280;48624;49.812;8.562;2023-02-14T15:39:55;102317.91;;;4.98;81.95
62333;BME280;48624;49.812;8.562;2023-02-14T15:42:30;102319.28;;;4.62;83.49
62333;BME280;48624;49.812;8.562;2023-02-14T15:45:28;102318.81;;;4.28;85.27
62333;BME280;48624;49.812;8.562;2023-02-14T15:48:02;102322.63;;;3.98;87.72
62333;BME280;48624;49.812;8.562;2023-02-14T15:50:30;102313.94;;;3.91;88.62
62333;BME280;48624;49.812;8.562;2023-02-14T15:55:52;102315.44;;;4.14;85.75
62333;BME280;48624;49.812;8.562;2023-02-14T15:58:23;102315.63;;;3.95;87.17
62333;BME280;48624;49.812;8.562;2023-02-14T16:00:51;102311.50;;;3.69;88.63
62333;BME280;48624;49.812;8.562;2023-02-14T16:03:21;102311.97;;;3.13;91.37
62333;BME280;48624;49.812;8.562;2023-02-14T16:05:49;102310.03;;;3.39;91.68
62333;BME280;48624;49.812;8.562;2023-02-14T16:11:02;102314.50;;;3.27;91.01
62333;BME280;48624;49.812;8.562;2023-02-14T16:13:29;102311.50;;;3.72;88.80
62333;BME280;48624;49.812;8.562;2023-02-14T16:15:59;102311.78;;;3.38;90.85
62333;BME280;48624;49.812;8.562;2023-02-14T16:18:42;102312.63;;;3.42;90.50
62333;BME280;48624;49.812;8.562;2023-02-14T16:23:38;102318.59;;;3.58;89.98
62333;BME280;48624;49.812;8.562;2023-02-14T16:26:07;102310.75;;;3.58;89.78
62333;BME280;48624;49.812;8.562;2023-02-14T16:28:33;102317.88;;;3.40;91.76
62333;BME280;48624;49.812;8.562;2023-02-14T16:31:02;102321.53;;;3.16;93.51
62333;BME280;48624;49.812;8.562;2023-02-14T16:33:31;102324.31;;;2.88;94.34
62333;BME280;48624;49.812;8.562;2023-02-14T16:36:07;102331.25;;;2.97;94.91
62333;BME280;48624;49.812;8.562;2023-02-14T16:38:41;102327.84;;;2.85;95.00
62333;BME280;48624;49.812;8.562;2023-02-14T16:41:14;102332.31;;;2.55;96.98
62333;BME280;48624;49.812;8.562;2023-02-14T16:43:42;102321.78;;;2.77;96.47
62333;BME280;48624;49.812;8.562;2023-02-14T16:46:13;102328.75;;;2.76;96.64
62333;BME280;48624;49.812;8.562;2023-02-14T16:48:40;102325.41;;;2.40;98.52
62333;BME280;48624;49.812;8.562;2023-02-14T16:51:05;102331.44;;;2.66;96.82
62333;BME280;48624;49.812;8.562;2023-02-14T16:53:31;102327.94;;;2.60;96.92
62333;BME280;48624;49.812;8.562;2023-02-14T16:55:56;102325.31;;;2.65;96.88
62333;BME280;48624;49.812;8.562;2023-02-14T16:58:26;102323.59;;;2.58;96.82
62333;BME280;48624;49.812;8.562;2023-02-14T17:00:52;102333.13;;;2.68;97.52
62333;BME280;48624;49.812;8.562;2023-02-14T17:03:18;102329.72;;;2.54;97.33
62333;BME280;48624;49.812;8.562;2023-02-14T17:05:43;102327.16;;;2.36;98.80
62333;BME280;48624;49.812;8.562;2023-02-14T17:08:11;102329.78;;;2.27;99.73
62333;BME280;48624;49.812;8.562;2023-02-14T17:10:39;102333.22;;;2.51;98.67
62333;BME280;48624;49.812;8.562;2023-02-14T17:13:06;102333.22;;;2.45;99.02
62333;BME280;48624;49.812;8.562;2023-02-14T17:15:32;102337.59;;;2.46;98.04
62333;BME280;48624;49.812;8.562;2023-02-14T17:18:02;102333.25;;;2.43;98.24
62333;BME280;48624;49.812;8.562;2023-02-14T17:20:29;102342.00;;;2.33;99.17
62333;BME280;48624;49.812;8.562;2023-02-14T17:22:55;102345.47;;;2.38;99.39
62333;BME280;48624;49.812;8.562;2023-02-14T17:25:21;102345.38;;;2.63;97.56
62333;BME280;48624;49.812;8.562;2023-02-14T17:27:47;102353.28;;;2.49;98.50
62333;BME280;48624;49.812;8.562;2023-02-14T17:30:13;102354.19;;;2.37;99.34
62333;BME280;48624;49.812;8.562;2023-02-14T17:32:40;102354.13;;;2.56;98.62
62333;BME280;48624;49.812;8.562;2023-02-14T17:35:05;102358.66;;;1.71;100.00
62333;BME280;48624;49.812;8.562;2023-02-14T17:37:35;102358.63;;;1.98;100.00
62333;BME280;48624;49.812;8.562;2023-02-14T17:40:00;102360.31;;;2.30;100.00
62333;BME280;48624;49.812;8.562;2023-02-14T17:42:26;102362.97;;;2.17;100.00
62333;BME280;48624;49.812;8.562;2023-02-14T17:44:51;102348.06;;;2.36;100.00
62333;BME280;48624;49.812;8.562;2023-02-14T17:47:17;102355.94;;;2.29;100.00
62333;BME280;48624;49.812;8.562;2023-02-14T17:49:46;102352.44;;;2.39;100.00
62333;BME280;48624;49.812;8.562;2023-02-14T17:52:12;102347.22;;;2.38;100.00
62333;BME280;48624;49.812;8.562;2023-02-14T17:54:37;102347.13;;;2.64;97.29
62333;BME280;48624;49.812;8.562;2023-02-14T17:57:03;102353.34;;;2.24;100.00
62333;BME280;48624;49.812;8.562;2023-02-14T17:59:30;102353.38;;;2.16;100.00
62333;BME280;48624;49.812;8.562;2023-02-14T18:01:56;102352.53;;;1.97;100.00
62333;BME280;48624;49.812;8.562;2023-02-14T18:04:23;102356.00;;;2.12;100.00
62333;BME280;48624;49.812;8.562;2023-02-14T18:06:49;102349.03;;;2.04;100.00
62333;BME280;48624;49.812;8.562;2023-02-14T18:09:14;102335.94;;;2.07;100.00
62333;BME280;48624;49.812;8.562;2023-02-14T18:11:40;102340.28;;;2.18;100.00
62333;BME280;48624;49.812;8.562;2023-02-14T18:14:06;102344.69;;;2.05;100.00
62333;BME280;48624;49.812;8.562;2023-02-14T18:16:32;102335.94;;;2.20;100.00
62333;BME280;48624;49.812;8.562;2023-02-14T18:19:01;102342.03;;;2.24;100.00
62333;BME280;48624;49.812;8.562;2023-02-14T18:21:30;102335.91;;;2.29;100.00
62333;BME280;48624;49.812;8.562;2023-02-14T18:23:59;102332.44;;;2.19;100.00
62333;BME280;48624;49.812;8.562;2023-02-14T18:26:25;102327.19;;;2.30;98.99
62333;BME280;48624;49.812;8.562;2023-02-14T18:28:51;102336.78;;;2.20;100.00
62333;BME280;48624;49.812;8.562;2023-02-14T18:31:17;102327.19;;;2.19;98.65
62333;BME280;48624;49.812;8.562;2023-02-14T18:33:43;102319.41;;;2.01;99.71
62333;BME280;48624;49.812;8.562;2023-02-14T18:36:12;102322.00;;;2.05;100.00
62333;BME280;48624;49.812;8.562;2023-02-14T18:38:39;102323.72;;;2.17;100.00
62333;BME280;48624;49.812;8.562;2023-02-14T18:41:08;102318.47;;;2.27;99.37
62333;BME280;48624;49.812;8.562;2023-02-14T18:43:34;102307.19;;;2.04;99.82
62333;BME280;48624;49.812;8.562;2023-02-14T18:46:04;102303.75;;;1.90;100.00
62333;BME280;48624;49.812;8.562;2023-02-14T18:48:30;102308.97;;;1.90;100.00
62333;BME280;48624;49.812;8.562;2023-02-14T18:51:02;102298.44;;;2.13;100.00
62333;BME280;48624;49.812;8.562;2023-02-14T18:53:27;102305.44;;;2.13;100.00
62333;BME280;48624;49.812;8.562;2023-02-14T18:55:53;102289.81;;;1.96;100.00
62333;BME280;48624;49.812;8.562;2023-02-14T18:58:19;102296.72;;;2.11;100.00
62333;BME280;48624;49.812;8.562;2023-02-14T19:00:45;102288.94;;;1.84;100.00
62333;BME280;48624;49.812;8.562;2023-02-14T19:03:10;102294.19;;;1.78;100.00
62333;BME280;48624;49.812;8.562;2023-02-14T19:05:36;102294.16;;;1.81;100.00
62333;BME280;48624;49.812;8.562;2023-02-14T19:08:02;102299.41;;;1.70;100.00
62333;BME280;48624;49.812;8.562;2023-02-14T19:10:27;102294.16;;;1.92;100.00
62333;BME280;48624;49.812;8.562;2023-02-14T19:12:53;102290.66;;;1.87;100.00
62333;BME280;48624;49.812;8.562;2023-02-14T19:15:18;102297.59;;;2.02;100.00
62333;BME280;48624;49.812;8.562;2023-02-14T19:17:43;102295.91;;;1.94;100.00